Island Lookout — WDF6311 — position and weather

sailwx.info

Track history (hours):
 
Tides and Currents Weather Stations Pressure Air Temp Water Temp Dewpoint Dewpoint Depression Visibility Wind Speed Wind Dir Waves Ship Positions

Island Lookout

Owner: Stevens Towing Company Inc., Yonges Island, SC. More information available from US FCC via Universal Licensing System and Coast Guard Vessel Documentation Center.

Last reported at 2017-Oct-14 21:11 UTC. Time now 2017-Oct-18 09:21 UTC.
Position N 36°43' W 076°14'.

Length 22 m; draft 2.9 m.

Type: Towing. MMSI: 367472930.

Date/timePositionNaut miles runAvg speedWind from/ knotsBaromVisibWave heightAir tempDewpointWater temp
2017-Oct-14 21:11N 36°43' W 076°14'1 3.4
2017-Oct-14 21:00N 36°43' W 076°15'0 0.3
2017-Oct-14 20:28N 36°43' W 076°15'0 0.8
2017-Oct-14 20:00N 36°44' W 076°15'2 4.1
2017-Oct-14 19:30N 36°44' W 076°18'2 4.8
2017-Oct-14 19:00N 36°47' W 076°18'0 1.0
2017-Oct-14 18:30N 36°47' W 076°18'3 5.9
2017-Oct-14 18:01N 36°50' W 076°18'3 6.1
2017-Oct-14 17:30N 36°52' W 076°20'3 6.5
2017-Oct-14 16:59N 36°56' W 076°20'112 6.0
2017-Oct-13 22:13N 38°48' W 076°27'2 6.9
2017-Oct-13 21:58N 38°50' W 076°26'3 7.1
2017-Oct-13 21:30N 38°53' W 076°25'4 7.1
2017-Oct-13 21:00N 38°56' W 076°25'3 6.7
2017-Oct-13 20:30N 38°59' W 076°23'3 6.5
2017-Oct-13 20:01N 39°03' W 076°23'3 6.3
2017-Oct-13 19:30N 39°06' W 076°24'4 6.1
2017-Oct-13 18:55N 39°09' W 076°25'2 5.9
2017-Oct-13 18:30N 39°11' W 076°27'3 6.1
2017-Oct-13 18:00N 39°12' W 076°31'2 4.3
2017-Oct-13 17:31N 39°14' W 076°33'2 3.4
2017-Oct-13 17:00N 39°13' W 076°35'0 0.7
2017-Oct-13 16:31N 39°12' W 076°35'0 0.0
2017-Oct-13 16:00N 39°12' W 076°35'0 0.0
2017-Oct-13 15:30N 39°12' W 076°35'0 0.0
2017-Oct-13 15:00N 39°12' W 076°35'0 0.0
2017-Oct-13 14:30N 39°12' W 076°35'0 0.0
2017-Oct-13 14:00N 39°12' W 076°35'0 0.0
2017-Oct-13 13:30N 39°12' W 076°35'0 0.0
2017-Oct-13 13:00N 39°12' W 076°35'0 0.0
2017-Oct-13 12:30N 39°12' W 076°35'0 0.0
2017-Oct-13 12:00N 39°12' W 076°35'0 0.0
2017-Oct-13 11:31N 39°12' W 076°35'0 0.0
2017-Oct-13 11:00N 39°12' W 076°35'0 0.0
2017-Oct-13 10:30N 39°12' W 076°35'0 0.0
2017-Oct-13 10:00N 39°12' W 076°35'0 0.0
2017-Oct-13 09:30N 39°12' W 076°35'0 0.0
2017-Oct-13 09:00N 39°12' W 076°35'0 0.0
2017-Oct-13 08:30N 39°12' W 076°35'0 0.0
2017-Oct-13 08:00N 39°12' W 076°35'0 0.0
2017-Oct-13 07:31N 39°12' W 076°35'0 0.0
2017-Oct-13 07:00N 39°12' W 076°35'0 0.0
2017-Oct-13 06:30N 39°12' W 076°35'0 0.0
2017-Oct-13 06:00N 39°12' W 076°35'0 0.0
2017-Oct-13 05:31N 39°12' W 076°35'0 0.0
2017-Oct-13 05:00N 39°12' W 076°35'0 0.0
2017-Oct-13 04:30N 39°12' W 076°35'0 0.0
2017-Oct-13 04:00N 39°12' W 076°35'0 0.0
2017-Oct-13 01:19N 39°12' W 076°35'0 0.0
2017-Oct-13 01:00N 39°12' W 076°35'0 0.0
2017-Oct-13 00:30N 39°12' W 076°35'0 0.0
2017-Oct-13 00:00N 39°12' W 076°35'0 0.0
2017-Oct-12 23:30N 39°12' W 076°35'0 0.0
2017-Oct-12 22:59N 39°12' W 076°35'0 0.0
2017-Oct-12 22:21N 39°12' W 076°35'0 0.0
2017-Oct-12 21:59N 39°12' W 076°35'0 0.0
2017-Oct-12 21:24N 39°12' W 076°35'0 0.0
2017-Oct-12 21:00N 39°12' W 076°35'0 0.0
2017-Oct-12 20:28N 39°12' W 076°35'0 0.0
2017-Oct-12 19:57N 39°12' W 076°35'0 0.0
2017-Oct-12 19:31N 39°12' W 076°35'0 0.0
2017-Oct-12 19:00N 39°12' W 076°35'0 0.0
2017-Oct-12 18:31N 39°12' W 076°35'0 0.0
2017-Oct-12 18:00N 39°12' W 076°35'0 0.0
2017-Oct-12 17:30N 39°12' W 076°35'0 0.2
2017-Oct-12 17:00N 39°12' W 076°35'0 0.0
2017-Oct-12 16:30N 39°12' W 076°35'0 0.0
2017-Oct-12 16:01N 39°12' W 076°35'0 0.0
2017-Oct-12 15:30N 39°12' W 076°35'1 2.8
2017-Oct-12 15:00N 39°14' W 076°34'0 0.0
2017-Oct-12 14:30N 39°14' W 076°34'0 0.0
2017-Oct-12 14:00N 39°14' W 076°34'1 2.8
2017-Oct-12 13:30N 39°12' W 076°35'0 0.0
2017-Oct-12 13:00N 39°12' W 076°35'0 0.0
2017-Oct-12 12:30N 39°12' W 076°35'0 0.0
2017-Oct-12 12:01N 39°12' W 076°35'0 0.0
2017-Oct-12 11:30N 39°12' W 076°35'0 0.0
2017-Oct-12 11:00N 39°12' W 076°35'0 0.0
2017-Oct-12 10:30N 39°12' W 076°35'0 0.0
2017-Oct-12 10:00N 39°12' W 076°35'0 0.0
2017-Oct-12 09:30N 39°12' W 076°35'0 0.0
2017-Oct-12 09:00N 39°12' W 076°35'0 0.0
2017-Oct-12 08:30N 39°12' W 076°35'0 0.0
2017-Oct-12 08:00N 39°12' W 076°35'0 0.0
2017-Oct-12 07:30N 39°12' W 076°35'0 0.0
2017-Oct-12 07:00N 39°12' W 076°35'0 0.0
2017-Oct-12 06:30N 39°12' W 076°35'0 0.0
2017-Oct-12 06:00N 39°12' W 076°35'0 0.0
2017-Oct-12 05:30N 39°12' W 076°35'0 0.0
2017-Oct-12 04:59N 39°12' W 076°35'0 0.0
2017-Oct-12 04:30N 39°12' W 076°35'0 0.0
2017-Oct-12 04:00N 39°12' W 076°35'0 0.0
2017-Oct-12 03:30N 39°12' W 076°35'0 0.0
2017-Oct-12 03:00N 39°12' W 076°35'0 0.0
2017-Oct-12 02:30N 39°12' W 076°35'0 0.0
2017-Oct-12 02:00N 39°12' W 076°35'0 0.0
2017-Oct-12 01:30N 39°12' W 076°35'0 0.0
2017-Oct-12 01:00N 39°12' W 076°35'0 0.0
2017-Oct-12 00:30N 39°12' W 076°35'0 0.0
2017-Oct-12 00:00N 39°12' W 076°35'0 0.1
2017-Oct-11 23:29N 39°12' W 076°35'0 1.0
2017-Oct-11 23:00N 39°13' W 076°35'2 4.1
2017-Oct-11 22:30N 39°15' W 076°34'2 3.7
2017-Oct-11 22:00N 39°16' W 076°35'0 0.0
2017-Oct-11 21:30N 39°16' W 076°35'0 0.0
2017-Oct-11 21:00N 39°16' W 076°35'0 0.0
2017-Oct-11 20:30N 39°16' W 076°35'0 0.0
2017-Oct-11 20:00N 39°16' W 076°35'0 0.0
2017-Oct-11 19:30N 39°16' W 076°35'0 0.0
2017-Oct-11 19:00N 39°16' W 076°35'0 0.0
2017-Oct-11 18:30N 39°16' W 076°35'0 0.0
2017-Oct-11 18:00N 39°16' W 076°35'0 0.0
2017-Oct-11 17:30N 39°16' W 076°35'0 0.0
2017-Oct-11 17:00N 39°16' W 076°35'19 1.1
2017-Oct-11 00:00N 38°59' W 076°23'4 7.9
2017-Oct-10 23:31N 38°55' W 076°24'4 7.9
2017-Oct-10 23:00N 38°52' W 076°25'4 7.8
2017-Oct-10 22:30N 38°48' W 076°27'  
2017-Oct-07 22:38N 36°51' W 076°18'1 6.7
2017-Oct-07 22:26N 36°52' W 076°19'3 6.4
2017-Oct-07 22:00N 36°54' W 076°20'49 5.1
2017-Oct-07 12:23N 37°43' W 076°11'3 7.0
2017-Oct-07 11:58N 37°46' W 076°11'4 7.2
2017-Oct-07 11:21N 37°50' W 076°11'6 6.8
2017-Oct-07 10:25N 37°57' W 076°12'3 6.9
2017-Oct-07 10:00N 37°59' W 076°13'3 6.5
2017-Oct-07 09:30N 38°02' W 076°14'3 6.1
2017-Oct-07 08:57N 38°06' W 076°16'3 6.0
2017-Oct-07 08:30N 38°08' W 076°16'3 5.7
2017-Oct-07 08:00N 38°11' W 076°17'3 5.6
2017-Oct-07 07:31N 38°14' W 076°18'3 5.5
2017-Oct-07 07:00N 38°16' W 076°19'3 5.3
2017-Oct-07 06:30N 38°19' W 076°20'3 5.3
2017-Oct-07 06:00N 38°21' W 076°21'3 5.5
2017-Oct-07 05:30N 38°24' W 076°22'3 5.8
2017-Oct-07 05:00N 38°27' W 076°24'3 6.1
2017-Oct-07 04:30N 38°29' W 076°26'3 6.2
2017-Oct-07 04:00N 38°32' W 076°27'3 6.4
2017-Oct-07 03:30N 38°35' W 076°28'3 6.5
2017-Oct-07 03:00N 38°39' W 076°28'3 6.6
2017-Oct-07 02:30N 38°42' W 076°27'3 6.5
2017-Oct-07 02:00N 38°45' W 076°27'4 6.4
2017-Oct-07 01:26N 38°49' W 076°26'3 6.2
2017-Oct-07 01:00N 38°51' W 076°25'3 6.1
2017-Oct-07 00:30N 38°54' W 076°25'4 5.9
2017-Oct-06 23:54N 38°58' W 076°24'2 5.7
2017-Oct-06 23:30N 39°00' W 076°23'3 5.5
2017-Oct-06 23:00N 39°03' W 076°23'3 5.6
2017-Oct-06 22:30N 39°06' W 076°24'4 5.7
2017-Oct-06 21:51N 39°09' W 076°25'2 5.8
2017-Oct-06 21:30N 39°11' W 076°27'3 5.9
2017-Oct-06 21:00N 39°12' W 076°30'3 5.6
2017-Oct-06 20:30N 39°13' W 076°33'2 3.1
2017-Oct-06 20:00N 39°12' W 076°35'0 0.2
2017-Oct-06 19:30N 39°12' W 076°35'0 0.2
2017-Oct-06 19:00N 39°12' W 076°35'0 0.0
2017-Oct-06 18:30N 39°12' W 076°35'1 2.8
2017-Oct-06 18:00N 39°14' W 076°34'0 0.0
2017-Oct-06 17:30N 39°14' W 076°34'0 0.0
2017-Oct-06 17:00N 39°14' W 076°34'0 0.0
2017-Oct-06 16:30N 39°14' W 076°34'1 2.4
2017-Oct-06 16:00N 39°13' W 076°35'0 0.4
2017-Oct-06 15:30N 39°12' W 076°35'0 0.0
2017-Oct-06 15:00N 39°12' W 076°35'0 0.0
2017-Oct-06 14:30N 39°12' W 076°35'0 0.0
2017-Oct-06 14:00N 39°12' W 076°35'0 0.0
2017-Oct-06 13:30N 39°12' W 076°35'0 0.0
2017-Oct-06 13:00N 39°12' W 076°35'0 0.0
2017-Oct-06 12:30N 39°12' W 076°35'0 0.0
2017-Oct-06 12:00N 39°12' W 076°35'0 0.0
2017-Oct-06 11:30N 39°12' W 076°35'0 0.0
2017-Oct-06 11:00N 39°12' W 076°35'0 0.0
2017-Oct-06 10:30N 39°12' W 076°35'0 0.0
2017-Oct-06 10:00N 39°12' W 076°35'0 0.0
2017-Oct-06 09:30N 39°12' W 076°35'0 0.0
2017-Oct-06 09:00N 39°12' W 076°35'0 0.0
2017-Oct-06 08:30N 39°12' W 076°35'0 0.0
2017-Oct-06 08:00N 39°12' W 076°35'0 0.8
2017-Oct-06 07:30N 39°13' W 076°35'3 5.2
2017-Oct-06 07:00N 39°13' W 076°31'3 6.7
2017-Oct-06 06:30N 39°11' W 076°28'3 6.1
2017-Oct-06 06:00N 39°12' W 076°24'3 6.5
2017-Oct-06 05:30N 39°14' W 076°20'3 6.6
2017-Oct-06 05:00N 39°15' W 076°17'4 7.2
2017-Oct-06 04:30N 39°18' W 076°13'4 7.7
2017-Oct-06 04:00N 39°21' W 076°10'4 7.5
2017-Oct-06 03:30N 39°23' W 076°06'3 6.9
2017-Oct-06 03:00N 39°25' W 076°02'3 6.4
2017-Oct-06 02:30N 39°27' W 075°59'3 5.8
2017-Oct-06 02:00N 39°29' W 075°57'3 5.2
2017-Oct-06 01:30N 39°31' W 075°54'2 4.7
2017-Oct-06 01:00N 39°32' W 075°51'2 4.1
2017-Oct-06 00:30N 39°32' W 075°49'2 4.0
2017-Oct-06 00:00N 39°32' W 075°46'2 4.0
2017-Oct-05 23:30N 39°33' W 075°44'2 4.0
2017-Oct-05 23:00N 39°33' W 075°41'2 4.1
2017-Oct-05 22:31N 39°33' W 075°39'2 4.4
2017-Oct-05 22:00N 39°33' W 075°36'2 4.4
2017-Oct-05 21:30N 39°34' W 075°33'4 8.1
2017-Oct-05 21:00N 39°38' W 075°34'4 8.6
2017-Oct-05 20:30N 39°42' W 075°31'4 8.2
2017-Oct-05 20:00N 39°45' W 075°29'4 7.7
2017-Oct-05 19:30N 39°48' W 075°25'4 7.4
2017-Oct-05 19:00N 39°50' W 075°21'3 6.5
2017-Oct-05 18:30N 39°51' W 075°17'2 4.9
2017-Oct-05 18:00N 39°51' W 075°14'2 4.1
2017-Oct-05 17:30N 39°53' W 075°12'2 4.9
2017-Oct-05 17:01N 39°53' W 075°09'2 1.1
2017-Oct-05 15:31N 39°54' W 075°08'0 0.0
2017-Oct-05 15:00N 39°54' W 075°08'0 0.0
2017-Oct-05 14:30N 39°54' W 075°08'0 0.0
2017-Oct-05 14:00N 39°54' W 075°08'0 0.0
2017-Oct-05 13:30N 39°54' W 075°08'0 0.0
2017-Oct-05 13:00N 39°54' W 075°08'0 0.0
2017-Oct-05 12:30N 39°54' W 075°08'0 0.0
2017-Oct-05 12:00N 39°54' W 075°08'0 0.0
2017-Oct-05 11:30N 39°54' W 075°08'0 0.0
2017-Oct-05 11:00N 39°54' W 075°08'0 0.0
2017-Oct-05 10:30N 39°54' W 075°08'0 0.0
2017-Oct-05 10:00N 39°54' W 075°08'0 0.0
2017-Oct-05 09:31N 39°54' W 075°08'0 0.0
2017-Oct-05 09:00N 39°54' W 075°08'0 0.0
2017-Oct-05 08:31N 39°54' W 075°08'0 0.0
2017-Oct-05 08:00N 39°54' W 075°08'0 0.0
2017-Oct-05 07:31N 39°54' W 075°08'0 0.0
2017-Oct-05 07:00N 39°54' W 075°08'0 0.0
2017-Oct-05 06:30N 39°54' W 075°08'0 0.0
2017-Oct-05 06:00N 39°54' W 075°08'0 0.0
2017-Oct-05 05:31N 39°54' W 075°08'0 0.0
2017-Oct-05 05:00N 39°54' W 075°08'0 0.0
2017-Oct-05 04:30N 39°54' W 075°08'0 0.0
2017-Oct-05 04:00N 39°54' W 075°08'0 0.0
2017-Oct-05 03:30N 39°54' W 075°08'0 0.0
2017-Oct-05 03:01N 39°54' W 075°08'0 0.0
2017-Oct-05 02:30N 39°54' W 075°08'0 0.0
2017-Oct-05 02:00N 39°54' W 075°08'0 0.0
2017-Oct-05 01:30N 39°54' W 075°08'0 0.0
2017-Oct-05 01:00N 39°54' W 075°08'0 0.0
2017-Oct-05 00:31N 39°54' W 075°08'0 0.0
2017-Oct-05 00:00N 39°54' W 075°08'0 0.0
2017-Oct-04 23:31N 39°54' W 075°08'0 0.0
2017-Oct-04 22:59N 39°54' W 075°08'0 0.0
2017-Oct-04 22:30N 39°54' W 075°08'0 0.0
2017-Oct-04 22:01N 39°54' W 075°08'0 0.0
2017-Oct-04 21:30N 39°54' W 075°08'  
Track history (hours):
 
Tides and Currents Weather Stations Pressure Air Temp Water Temp Dewpoint Dewpoint Depression Visibility Wind Speed Wind Dir Waves Ship Positions

Island Lookout

Owner: Stevens Towing Company Inc., Yonges Island, SC. More information available from US FCC via Universal Licensing System and Coast Guard Vessel Documentation Center.

Last reported at 2017-Oct-14 21:11 UTC. Time now 2017-Oct-18 09:21 UTC.
Position N 36°43' W 076°14'.

Length 22 m; draft 2.9 m.

Type: Towing. MMSI: 367472930.

Date/timePositionNaut miles runAvg speedWind from/ knotsBaromVisibWave heightAir tempDewpointWater temp
2017-Oct-14 21:11N 36°43' W 076°14'1 3.4
2017-Oct-14 21:00N 36°43' W 076°15'0 0.3
2017-Oct-14 20:28N 36°43' W 076°15'0 0.8
2017-Oct-14 20:00N 36°44' W 076°15'2 4.1
2017-Oct-14 19:30N 36°44' W 076°18'2 4.8
2017-Oct-14 19:00N 36°47' W 076°18'0 1.0
2017-Oct-14 18:30N 36°47' W 076°18'3 5.9
2017-Oct-14 18:01N 36°50' W 076°18'3 6.1
2017-Oct-14 17:30N 36°52' W 076°20'3 6.5
2017-Oct-14 16:59N 36°56' W 076°20'112 6.0
2017-Oct-13 22:13N 38°48' W 076°27'2 6.9
2017-Oct-13 21:58N 38°50' W 076°26'3 7.1
2017-Oct-13 21:30N 38°53' W 076°25'4 7.1
2017-Oct-13 21:00N 38°56' W 076°25'3 6.7
2017-Oct-13 20:30N 38°59' W 076°23'3 6.5
2017-Oct-13 20:01N 39°03' W 076°23'3 6.3
2017-Oct-13 19:30N 39°06' W 076°24'4 6.1
2017-Oct-13 18:55N 39°09' W 076°25'2 5.9
2017-Oct-13 18:30N 39°11' W 076°27'3 6.1
2017-Oct-13 18:00N 39°12' W 076°31'2 4.3
2017-Oct-13 17:31N 39°14' W 076°33'2 3.4
2017-Oct-13 17:00N 39°13' W 076°35'0 0.7
2017-Oct-13 16:31N 39°12' W 076°35'0 0.0
2017-Oct-13 16:00N 39°12' W 076°35'0 0.0
2017-Oct-13 15:30N 39°12' W 076°35'0 0.0
2017-Oct-13 15:00N 39°12' W 076°35'0 0.0
2017-Oct-13 14:30N 39°12' W 076°35'0 0.0
2017-Oct-13 14:00N 39°12' W 076°35'0 0.0
2017-Oct-13 13:30N 39°12' W 076°35'0 0.0
2017-Oct-13 13:00N 39°12' W 076°35'0 0.0
2017-Oct-13 12:30N 39°12' W 076°35'0 0.0
2017-Oct-13 12:00N 39°12' W 076°35'0 0.0
2017-Oct-13 11:31N 39°12' W 076°35'0 0.0
2017-Oct-13 11:00N 39°12' W 076°35'0 0.0
2017-Oct-13 10:30N 39°12' W 076°35'0 0.0
2017-Oct-13 10:00N 39°12' W 076°35'0 0.0
2017-Oct-13 09:30N 39°12' W 076°35'0 0.0
2017-Oct-13 09:00N 39°12' W 076°35'0 0.0
2017-Oct-13 08:30N 39°12' W 076°35'0 0.0
2017-Oct-13 08:00N 39°12' W 076°35'0 0.0
2017-Oct-13 07:31N 39°12' W 076°35'0 0.0
2017-Oct-13 07:00N 39°12' W 076°35'0 0.0
2017-Oct-13 06:30N 39°12' W 076°35'0 0.0
2017-Oct-13 06:00N 39°12' W 076°35'0 0.0
2017-Oct-13 05:31N 39°12' W 076°35'0 0.0
2017-Oct-13 05:00N 39°12' W 076°35'0 0.0
2017-Oct-13 04:30N 39°12' W 076°35'0 0.0
2017-Oct-13 04:00N 39°12' W 076°35'0 0.0
2017-Oct-13 01:19N 39°12' W 076°35'0 0.0
2017-Oct-13 01:00N 39°12' W 076°35'0 0.0
2017-Oct-13 00:30N 39°12' W 076°35'0 0.0
2017-Oct-13 00:00N 39°12' W 076°35'0 0.0
2017-Oct-12 23:30N 39°12' W 076°35'0 0.0
2017-Oct-12 22:59N 39°12' W 076°35'0 0.0
2017-Oct-12 22:21N 39°12' W 076°35'0 0.0
2017-Oct-12 21:59N 39°12' W 076°35'0 0.0
2017-Oct-12 21:24N 39°12' W 076°35'0 0.0
2017-Oct-12 21:00N 39°12' W 076°35'0 0.0
2017-Oct-12 20:28N 39°12' W 076°35'0 0.0
2017-Oct-12 19:57N 39°12' W 076°35'0 0.0
2017-Oct-12 19:31N 39°12' W 076°35'0 0.0
2017-Oct-12 19:00N 39°12' W 076°35'0 0.0
2017-Oct-12 18:31N 39°12' W 076°35'0 0.0
2017-Oct-12 18:00N 39°12' W 076°35'0 0.0
2017-Oct-12 17:30N 39°12' W 076°35'0 0.2
2017-Oct-12 17:00N 39°12' W 076°35'0 0.0
2017-Oct-12 16:30N 39°12' W 076°35'0 0.0
2017-Oct-12 16:01N 39°12' W 076°35'0 0.0
2017-Oct-12 15:30N 39°12' W 076°35'1 2.8
2017-Oct-12 15:00N 39°14' W 076°34'0 0.0
2017-Oct-12 14:30N 39°14' W 076°34'0 0.0
2017-Oct-12 14:00N 39°14' W 076°34'1 2.8
2017-Oct-12 13:30N 39°12' W 076°35'0 0.0
2017-Oct-12 13:00N 39°12' W 076°35'0 0.0
2017-Oct-12 12:30N 39°12' W 076°35'0 0.0
2017-Oct-12 12:01N 39°12' W 076°35'0 0.0
2017-Oct-12 11:30N 39°12' W 076°35'0 0.0
2017-Oct-12 11:00N 39°12' W 076°35'0 0.0
2017-Oct-12 10:30N 39°12' W 076°35'0 0.0
2017-Oct-12 10:00N 39°12' W 076°35'0 0.0
2017-Oct-12 09:30N 39°12' W 076°35'0 0.0
2017-Oct-12 09:00N 39°12' W 076°35'0 0.0
2017-Oct-12 08:30N 39°12' W 076°35'0 0.0
2017-Oct-12 08:00N 39°12' W 076°35'0 0.0
2017-Oct-12 07:30N 39°12' W 076°35'0 0.0
2017-Oct-12 07:00N 39°12' W 076°35'0 0.0
2017-Oct-12 06:30N 39°12' W 076°35'0 0.0
2017-Oct-12 06:00N 39°12' W 076°35'0 0.0
2017-Oct-12 05:30N 39°12' W 076°35'0 0.0
2017-Oct-12 04:59N 39°12' W 076°35'0 0.0
2017-Oct-12 04:30N 39°12' W 076°35'0 0.0
2017-Oct-12 04:00N 39°12' W 076°35'0 0.0
2017-Oct-12 03:30N 39°12' W 076°35'0 0.0
2017-Oct-12 03:00N 39°12' W 076°35'0 0.0
2017-Oct-12 02:30N 39°12' W 076°35'0 0.0
2017-Oct-12 02:00N 39°12' W 076°35'0 0.0
2017-Oct-12 01:30N 39°12' W 076°35'0 0.0
2017-Oct-12 01:00N 39°12' W 076°35'0 0.0
2017-Oct-12 00:30N 39°12' W 076°35'0 0.0
2017-Oct-12 00:00N 39°12' W 076°35'0 0.1
2017-Oct-11 23:29N 39°12' W 076°35'0 1.0
2017-Oct-11 23:00N 39°13' W 076°35'2 4.1
2017-Oct-11 22:30N 39°15' W 076°34'2 3.7
2017-Oct-11 22:00N 39°16' W 076°35'0 0.0
2017-Oct-11 21:30N 39°16' W 076°35'0 0.0
2017-Oct-11 21:00N 39°16' W 076°35'0 0.0
2017-Oct-11 20:30N 39°16' W 076°35'0 0.0
2017-Oct-11 20:00N 39°16' W 076°35'0 0.0
2017-Oct-11 19:30N 39°16' W 076°35'0 0.0
2017-Oct-11 19:00N 39°16' W 076°35'0 0.0
2017-Oct-11 18:30N 39°16' W 076°35'0 0.0
2017-Oct-11 18:00N 39°16' W 076°35'0 0.0
2017-Oct-11 17:30N 39°16' W 076°35'0 0.0
2017-Oct-11 17:00N 39°16' W 076°35'19 1.1
2017-Oct-11 00:00N 38°59' W 076°23'4 7.9
2017-Oct-10 23:31N 38°55' W 076°24'4 7.9
2017-Oct-10 23:00N 38°52' W 076°25'4 7.8
2017-Oct-10 22:30N 38°48' W 076°27'  
2017-Oct-07 22:38N 36°51' W 076°18'1 6.7
2017-Oct-07 22:26N 36°52' W 076°19'3 6.4
2017-Oct-07 22:00N 36°54' W 076°20'49 5.1
2017-Oct-07 12:23N 37°43' W 076°11'3 7.0
2017-Oct-07 11:58N 37°46' W 076°11'4 7.2
2017-Oct-07 11:21N 37°50' W 076°11'6 6.8
2017-Oct-07 10:25N 37°57' W 076°12'3 6.9
2017-Oct-07 10:00N 37°59' W 076°13'3 6.5
2017-Oct-07 09:30N 38°02' W 076°14'3 6.1
2017-Oct-07 08:57N 38°06' W 076°16'3 6.0
2017-Oct-07 08:30N 38°08' W 076°16'3 5.7
2017-Oct-07 08:00N 38°11' W 076°17'3 5.6
2017-Oct-07 07:31N 38°14' W 076°18'3 5.5
2017-Oct-07 07:00N 38°16' W 076°19'3 5.3
2017-Oct-07 06:30N 38°19' W 076°20'3 5.3
2017-Oct-07 06:00N 38°21' W 076°21'3 5.5
2017-Oct-07 05:30N 38°24' W 076°22'3 5.8
2017-Oct-07 05:00N 38°27' W 076°24'3 6.1
2017-Oct-07 04:30N 38°29' W 076°26'3 6.2
2017-Oct-07 04:00N 38°32' W 076°27'3 6.4
2017-Oct-07 03:30N 38°35' W 076°28'3 6.5
2017-Oct-07 03:00N 38°39' W 076°28'3 6.6
2017-Oct-07 02:30N 38°42' W 076°27'3 6.5
2017-Oct-07 02:00N 38°45' W 076°27'4 6.4
2017-Oct-07 01:26N 38°49' W 076°26'3 6.2
2017-Oct-07 01:00N 38°51' W 076°25'3 6.1
2017-Oct-07 00:30N 38°54' W 076°25'4 5.9
2017-Oct-06 23:54N 38°58' W 076°24'2 5.7
2017-Oct-06 23:30N 39°00' W 076°23'3 5.5
2017-Oct-06 23:00N 39°03' W 076°23'3 5.6
2017-Oct-06 22:30N 39°06' W 076°24'4 5.7
2017-Oct-06 21:51N 39°09' W 076°25'2 5.8
2017-Oct-06 21:30N 39°11' W 076°27'3 5.9
2017-Oct-06 21:00N 39°12' W 076°30'3 5.6
2017-Oct-06 20:30N 39°13' W 076°33'2 3.1
2017-Oct-06 20:00N 39°12' W 076°35'0 0.2
2017-Oct-06 19:30N 39°12' W 076°35'0 0.2
2017-Oct-06 19:00N 39°12' W 076°35'0 0.0
2017-Oct-06 18:30N 39°12' W 076°35'1 2.8
2017-Oct-06 18:00N 39°14' W 076°34'0 0.0
2017-Oct-06 17:30N 39°14' W 076°34'0 0.0
2017-Oct-06 17:00N 39°14' W 076°34'0 0.0
2017-Oct-06 16:30N 39°14' W 076°34'1 2.4
2017-Oct-06 16:00N 39°13' W 076°35'0 0.4
2017-Oct-06 15:30N 39°12' W 076°35'0 0.0
2017-Oct-06 15:00N 39°12' W 076°35'0 0.0
2017-Oct-06 14:30N 39°12' W 076°35'0 0.0
2017-Oct-06 14:00N 39°12' W 076°35'0 0.0
2017-Oct-06 13:30N 39°12' W 076°35'0 0.0
2017-Oct-06 13:00N 39°12' W 076°35'0 0.0
2017-Oct-06 12:30N 39°12' W 076°35'0 0.0
2017-Oct-06 12:00N 39°12' W 076°35'0 0.0
2017-Oct-06 11:30N 39°12' W 076°35'0 0.0
2017-Oct-06 11:00N 39°12' W 076°35'0 0.0
2017-Oct-06 10:30N 39°12' W 076°35'0 0.0
2017-Oct-06 10:00N 39°12' W 076°35'0 0.0
2017-Oct-06 09:30N 39°12' W 076°35'0 0.0
2017-Oct-06 09:00N 39°12' W 076°35'0 0.0
2017-Oct-06 08:30N 39°12' W 076°35'0 0.0
2017-Oct-06 08:00N 39°12' W 076°35'0 0.8
2017-Oct-06 07:30N 39°13' W 076°35'3 5.2
2017-Oct-06 07:00N 39°13' W 076°31'3 6.7
2017-Oct-06 06:30N 39°11' W 076°28'3 6.1
2017-Oct-06 06:00N 39°12' W 076°24'3 6.5
2017-Oct-06 05:30N 39°14' W 076°20'3 6.6
2017-Oct-06 05:00N 39°15' W 076°17'4 7.2
2017-Oct-06 04:30N 39°18' W 076°13'4 7.7
2017-Oct-06 04:00N 39°21' W 076°10'4 7.5
2017-Oct-06 03:30N 39°23' W 076°06'3 6.9
2017-Oct-06 03:00N 39°25' W 076°02'3 6.4
2017-Oct-06 02:30N 39°27' W 075°59'3 5.8
2017-Oct-06 02:00N 39°29' W 075°57'3 5.2
2017-Oct-06 01:30N 39°31' W 075°54'2 4.7
2017-Oct-06 01:00N 39°32' W 075°51'2 4.1
2017-Oct-06 00:30N 39°32' W 075°49'2 4.0
2017-Oct-06 00:00N 39°32' W 075°46'2 4.0
2017-Oct-05 23:30N 39°33' W 075°44'2 4.0
2017-Oct-05 23:00N 39°33' W 075°41'2 4.1
2017-Oct-05 22:31N 39°33' W 075°39'2 4.4
2017-Oct-05 22:00N 39°33' W 075°36'2 4.4
2017-Oct-05 21:30N 39°34' W 075°33'4 8.1
2017-Oct-05 21:00N 39°38' W 075°34'4 8.6
2017-Oct-05 20:30N 39°42' W 075°31'4 8.2
2017-Oct-05 20:00N 39°45' W 075°29'4 7.7
2017-Oct-05 19:30N 39°48' W 075°25'4 7.4
2017-Oct-05 19:00N 39°50' W 075°21'3 6.5
2017-Oct-05 18:30N 39°51' W 075°17'2 4.9
2017-Oct-05 18:00N 39°51' W 075°14'2 4.1
2017-Oct-05 17:30N 39°53' W 075°12'2 4.9
2017-Oct-05 17:01N 39°53' W 075°09'2 1.1
2017-Oct-05 15:31N 39°54' W 075°08'0 0.0
2017-Oct-05 15:00N 39°54' W 075°08'0 0.0
2017-Oct-05 14:30N 39°54' W 075°08'0 0.0
2017-Oct-05 14:00N 39°54' W 075°08'0 0.0
2017-Oct-05 13:30N 39°54' W 075°08'0 0.0
2017-Oct-05 13:00N 39°54' W 075°08'0 0.0
2017-Oct-05 12:30N 39°54' W 075°08'0 0.0
2017-Oct-05 12:00N 39°54' W 075°08'0 0.0
2017-Oct-05 11:30N 39°54' W 075°08'0 0.0
2017-Oct-05 11:00N 39°54' W 075°08'0 0.0
2017-Oct-05 10:30N 39°54' W 075°08'0 0.0
2017-Oct-05 10:00N 39°54' W 075°08'0 0.0
2017-Oct-05 09:31N 39°54' W 075°08'0 0.0
2017-Oct-05 09:00N 39°54' W 075°08'0 0.0
2017-Oct-05 08:31N 39°54' W 075°08'0 0.0
2017-Oct-05 08:00N 39°54' W 075°08'0 0.0
2017-Oct-05 07:31N 39°54' W 075°08'0 0.0
2017-Oct-05 07:00N 39°54' W 075°08'0 0.0
2017-Oct-05 06:30N 39°54' W 075°08'0 0.0
2017-Oct-05 06:00N 39°54' W 075°08'0 0.0
2017-Oct-05 05:31N 39°54' W 075°08'0 0.0
2017-Oct-05 05:00N 39°54' W 075°08'0 0.0
2017-Oct-05 04:30N 39°54' W 075°08'0 0.0
2017-Oct-05 04:00N 39°54' W 075°08'0 0.0
2017-Oct-05 03:30N 39°54' W 075°08'0 0.0
2017-Oct-05 03:01N 39°54' W 075°08'0 0.0
2017-Oct-05 02:30N 39°54' W 075°08'0 0.0
2017-Oct-05 02:00N 39°54' W 075°08'0 0.0
2017-Oct-05 01:30N 39°54' W 075°08'0 0.0
2017-Oct-05 01:00N 39°54' W 075°08'0 0.0
2017-Oct-05 00:31N 39°54' W 075°08'0 0.0
2017-Oct-05 00:00N 39°54' W 075°08'0 0.0
2017-Oct-04 23:31N 39°54' W 075°08'0 0.0
2017-Oct-04 22:59N 39°54' W 075°08'0 0.0
2017-Oct-04 22:30N 39°54' W 075°08'0 0.0
2017-Oct-04 22:01N 39°54' W 075°08'0 0.0
2017-Oct-04 21:30N 39°54' W 075°08'  

Dump ship's entire track history